createdAt,value
2019-02-20T00:01:37.757Z,50.40
2019-02-20T00:04:08.122Z,50.40
2019-02-20T00:06:38.715Z,50.60
2019-02-20T00:09:09.314Z,50.60
2019-02-20T00:11:39.765Z,50.80
2019-02-20T00:14:10.176Z,50.80
2019-02-20T00:16:44.526Z,50.80
2019-02-20T00:19:14.543Z,50.80
2019-02-20T00:21:44.972Z,51.00
2019-02-20T00:24:15.455Z,50.90
2019-02-20T00:26:48.429Z,50.90
2019-02-20T00:29:19.180Z,51.00
2019-02-20T00:31:49.584Z,51.10
2019-02-20T00:34:20.050Z,51.00
2019-02-20T00:36:50.510Z,51.00
2019-02-20T00:39:20.863Z,51.00
2019-02-20T00:41:51.256Z,51.10
2019-02-20T00:44:23.095Z,51.20
2019-02-20T00:47:12.844Z,51.20
2019-02-20T00:49:45.763Z,51.10
2019-02-20T00:52:20.437Z,51.10
2019-02-20T00:55:03.895Z,51.00
2019-02-20T00:57:52.358Z,51.10
2019-02-20T01:00:27.035Z,51.00
2019-02-20T01:02:57.495Z,50.90
2019-02-20T01:05:30.732Z,50.90
2019-02-20T01:08:00.833Z,51.00
2019-02-20T01:10:34.991Z,51.00
2019-02-20T01:13:06.550Z,51.10
2019-02-20T01:15:39.648Z,51.70
2019-02-20T01:18:16.350Z,51.00
2019-02-20T01:23:39.708Z,51.00
2019-02-20T01:26:13.239Z,51.00
2019-02-20T01:28:43.901Z,50.90
2019-02-20T01:31:16.743Z,50.90
2019-02-20T01:33:55.893Z,50.90
2019-02-20T01:42:16.267Z,51.00
2019-02-20T01:44:55.470Z,50.90
2019-02-20T01:47:29.654Z,50.90
2019-02-20T01:50:12.394Z,50.90
2019-02-20T01:55:34.783Z,50.80
2019-02-20T01:58:12.418Z,50.70
2019-02-20T02:00:43.001Z,50.70
2019-02-20T02:03:14.493Z,50.70
2019-02-20T02:05:46.129Z,50.70
2019-02-20T02:08:26.318Z,50.70
2019-02-20T02:11:04.178Z,50.60
2019-02-20T02:13:38.717Z,50.60
2019-02-20T02:16:17.286Z,50.60
2019-02-20T02:18:51.517Z,50.60
2019-02-20T02:21:30.189Z,50.60
2019-02-20T02:24:16.356Z,50.50
2019-02-20T02:26:50.071Z,50.50
2019-02-20T02:29:23.905Z,50.60
2019-02-20T02:31:58.434Z,50.40
2019-02-20T02:37:35.765Z,50.40
2019-02-20T02:40:14.280Z,50.30
2019-02-20T02:42:45.728Z,50.20
2019-02-20T02:45:20.797Z,50.20
2019-02-20T02:50:45.683Z,50.00
2019-02-20T02:53:30.437Z,50.00
2019-02-20T02:55:52.868Z,50.00
2019-02-20T02:58:28.062Z,49.90
2019-02-20T03:01:03.048Z,49.90
2019-02-20T03:03:43.957Z,49.80
2019-02-20T03:06:25.383Z,49.80
2019-02-20T03:09:01.088Z,49.70
2019-02-20T03:17:11.390Z,49.50
2019-02-20T03:19:57.873Z,49.40
2019-02-20T03:22:35.901Z,49.40
2019-02-20T03:25:08.196Z,49.30
2019-02-20T03:27:40.339Z,49.20
2019-02-20T03:33:04.404Z,49.20
2019-02-20T03:35:42.380Z,49.10
2019-02-20T03:38:29.626Z,49.20
2019-02-20T03:40:45.410Z,49.10
2019-02-20T03:43:16.840Z,49.00
2019-02-20T03:45:47.298Z,49.00
2019-02-20T03:48:18.087Z,48.90
2019-02-20T03:50:48.465Z,48.80
2019-02-20T03:53:19.372Z,48.70
2019-02-20T03:55:49.930Z,48.70
2019-02-20T03:58:20.294Z,48.70
2019-02-20T04:00:50.869Z,48.60
2019-02-20T04:03:21.424Z,48.60
2019-02-20T04:05:52.315Z,48.60
2019-02-20T04:08:22.801Z,48.50
2019-02-20T04:10:53.246Z,48.50
2019-02-20T04:13:23.620Z,48.50
2019-02-20T04:15:53.999Z,48.40
2019-02-20T04:18:24.564Z,48.30
2019-02-20T04:20:55.270Z,48.20
2019-02-20T04:23:25.940Z,48.20
2019-02-20T04:25:56.465Z,48.20
2019-02-20T04:28:26.826Z,48.20
2019-02-20T04:30:57.465Z,48.10
2019-02-20T04:33:27.977Z,48.10
2019-02-20T04:35:58.557Z,48.10
2019-02-20T04:38:29.575Z,48.10
2019-02-20T04:40:59.982Z,47.70
2019-02-20T04:43:30.452Z,44.70
2019-02-20T04:46:00.907Z,44.50
2019-02-20T04:48:31.318Z,44.60
2019-02-20T04:51:01.704Z,44.50
2019-02-20T04:53:32.179Z,44.40
2019-02-20T04:56:02.703Z,44.00
2019-02-20T04:58:33.074Z,43.50
2019-02-20T05:01:03.498Z,43.10
2019-02-20T05:03:34.210Z,42.70
2019-02-20T05:06:04.541Z,42.70
2019-02-20T05:08:35.026Z,42.90
2019-02-20T05:11:05.499Z,43.00
2019-02-20T05:13:35.857Z,43.10
2019-02-20T05:16:06.255Z,43.20
2019-02-20T05:18:36.792Z,43.10
2019-02-20T05:21:07.234Z,42.80
2019-02-20T05:23:37.603Z,42.40
2019-02-20T05:26:08.259Z,42.20
2019-02-20T05:28:38.786Z,42.10
2019-02-20T05:31:09.169Z,42.10
2019-02-20T05:33:39.649Z,42.50
2019-02-20T05:36:10.080Z,42.80
2019-02-20T05:38:40.721Z,43.30
2019-02-20T05:41:13.448Z,43.60
2019-02-20T05:43:43.918Z,44.00
2019-02-20T05:46:14.288Z,44.30
2019-02-20T05:48:44.784Z,44.50
2019-02-20T05:51:15.265Z,44.70
2019-02-20T05:53:45.715Z,44.70
2019-02-20T05:56:16.146Z,44.70
2019-02-20T05:58:47.274Z,44.80
2019-02-20T06:01:17.877Z,44.80
2019-02-20T06:03:48.444Z,44.90
2019-02-20T06:06:18.827Z,45.00
2019-02-20T06:08:49.471Z,45.00
2019-02-20T06:11:19.994Z,45.00
2019-02-20T06:13:50.350Z,45.10
2019-02-20T06:16:20.733Z,45.10
2019-02-20T06:18:51.226Z,45.20
2019-02-20T06:21:22.280Z,45.20
2019-02-20T06:23:52.718Z,45.20
2019-02-20T06:26:23.881Z,45.40
2019-02-20T06:28:54.227Z,45.30
2019-02-20T06:31:24.921Z,45.40
2019-02-20T06:33:56.108Z,45.40
2019-02-20T06:36:26.760Z,45.40
2019-02-20T06:38:57.742Z,45.40
2019-02-20T06:41:38.326Z,45.50
2019-02-20T06:44:00.649Z,45.50
2019-02-20T06:46:31.033Z,45.60
2019-02-20T06:49:01.554Z,45.60
2019-02-20T06:51:32.253Z,45.60
2019-02-20T06:54:02.602Z,45.60
2019-02-20T06:56:33.094Z,45.70
2019-02-20T06:59:03.736Z,45.70
2019-02-20T07:01:34.185Z,45.70
2019-02-20T07:04:04.973Z,45.70
2019-02-20T07:06:43.740Z,45.70
2019-02-20T07:09:45.117Z,45.70
2019-02-20T07:12:23.955Z,45.70
2019-02-20T07:15:05.791Z,45.70
2019-02-20T07:17:53.554Z,45.80
2019-02-20T07:20:59.367Z,45.80
2019-02-20T07:23:52.016Z,45.80
2019-02-20T07:26:43.158Z,45.80
2019-02-20T07:29:27.830Z,45.80
2019-02-20T07:31:58.304Z,45.90
2019-02-20T07:34:28.697Z,45.90
2019-02-20T07:36:59.136Z,46.00
2019-02-20T07:39:29.606Z,46.00
2019-02-20T07:42:00.018Z,46.00
2019-02-20T07:44:30.652Z,46.00
2019-02-20T07:47:01.109Z,46.00
2019-02-20T07:49:31.566Z,46.00
2019-02-20T07:52:01.998Z,46.00
2019-02-20T07:54:32.447Z,46.00
2019-02-20T07:57:02.785Z,46.00
2019-02-20T07:59:33.235Z,46.00
2019-02-20T08:02:03.733Z,46.00
2019-02-20T08:04:34.152Z,46.00
2019-02-20T08:07:04.770Z,46.00
2019-02-20T08:09:35.383Z,46.00
2019-02-20T08:12:05.725Z,46.10
2019-02-20T08:14:36.456Z,46.10
2019-02-20T08:17:07.343Z,46.10
2019-02-20T08:19:37.964Z,46.10
2019-02-20T08:22:08.534Z,46.10
2019-02-20T08:24:38.949Z,46.10
2019-02-20T08:27:09.672Z,46.10
2019-02-20T08:29:40.103Z,46.10
2019-02-20T08:32:10.453Z,46.10
2019-02-20T08:34:42.189Z,46.10
2019-02-20T08:37:12.648Z,46.20
2019-02-20T08:39:43.110Z,46.10
2019-02-20T08:42:13.493Z,46.10
2019-02-20T08:44:43.955Z,46.10
2019-02-20T08:47:14.429Z,46.20
2019-02-20T08:49:45.088Z,46.20
2019-02-20T08:52:15.429Z,46.10
2019-02-20T08:54:45.852Z,46.20
2019-02-20T08:57:16.365Z,46.20
2019-02-20T08:59:46.800Z,46.20
2019-02-20T09:02:17.181Z,46.20
2019-02-20T09:04:47.786Z,46.20
2019-02-20T09:07:18.379Z,46.20
2019-02-20T09:09:49.081Z,46.20
2019-02-20T09:12:19.547Z,46.20
2019-02-20T09:14:49.977Z,46.20
2019-02-20T09:17:20.681Z,46.20
2019-02-20T09:19:51.220Z,46.20
2019-02-20T09:22:21.690Z,46.30
2019-02-20T09:24:52.155Z,46.30
2019-02-20T09:27:22.501Z,46.30
2019-02-20T09:29:53.370Z,46.30
2019-02-20T09:32:23.750Z,46.30
2019-02-20T09:34:54.122Z,46.30
2019-02-20T09:37:24.602Z,46.30
2019-02-20T09:39:55.428Z,46.30
2019-02-20T09:42:25.776Z,46.20
2019-02-20T09:44:56.163Z,46.20
2019-02-20T09:47:26.636Z,46.30
2019-02-20T09:49:56.989Z,46.80
2019-02-20T09:52:27.417Z,46.20
2019-02-20T09:54:57.891Z,46.20
2019-02-20T09:57:28.240Z,46.30
2019-02-20T09:59:58.652Z,46.30
2019-02-20T10:02:29.175Z,46.30
2019-02-20T10:04:59.603Z,46.30
2019-02-20T10:07:29.964Z,46.30
2019-02-20T10:10:00.624Z,46.30
2019-02-20T10:12:31.626Z,46.20
2019-02-20T10:15:02.093Z,46.30
2019-02-20T10:17:32.689Z,46.30
2019-02-20T10:20:03.061Z,46.30
2019-02-20T10:22:33.510Z,46.30
2019-02-20T10:25:04.205Z,46.30
2019-02-20T10:27:34.588Z,46.30
2019-02-20T10:30:05.759Z,46.30
2019-02-20T10:32:36.116Z,46.30
2019-02-20T10:35:08.578Z,46.30
2019-02-20T10:37:39.101Z,46.30
2019-02-20T10:40:11.167Z,46.30
2019-02-20T10:42:41.904Z,46.30
2019-02-20T10:45:13.376Z,46.30
2019-02-20T10:47:43.825Z,46.30
2019-02-20T10:50:15.128Z,46.30
2019-02-20T10:52:45.577Z,46.30
2019-02-20T10:55:16.489Z,46.30
2019-02-20T10:57:46.840Z,46.20
2019-02-20T11:00:24.305Z,46.30
2019-02-20T11:02:54.052Z,46.20
2019-02-20T11:05:24.516Z,46.30
2019-02-20T11:07:54.966Z,46.30
2019-02-20T11:10:25.658Z,46.30
2019-02-20T11:12:56.092Z,46.30
2019-02-20T11:15:26.724Z,46.30
2019-02-20T11:17:57.165Z,46.30
2019-02-20T11:20:27.778Z,46.30
2019-02-20T11:22:58.249Z,46.30
2019-02-20T11:25:31.238Z,46.30
2019-02-20T11:28:01.694Z,46.30
2019-02-20T11:30:32.067Z,46.20
2019-02-20T11:33:03.458Z,46.30
2019-02-20T11:35:34.216Z,46.20
2019-02-20T11:38:04.582Z,46.20
2019-02-20T11:40:34.981Z,46.20
2019-02-20T11:43:06.280Z,46.20
2019-02-20T11:45:36.697Z,46.30
2019-02-20T11:48:07.441Z,46.20
2019-02-20T11:50:37.829Z,46.20
2019-02-20T11:53:08.305Z,46.20
2019-02-20T11:55:38.760Z,46.20
2019-02-20T11:58:09.099Z,46.30
2019-02-20T12:00:39.482Z,46.20
2019-02-20T12:03:09.950Z,46.10
2019-02-20T12:05:40.383Z,46.20
2019-02-20T12:08:10.732Z,46.20
2019-02-20T12:10:41.264Z,46.20
2019-02-20T12:13:11.602Z,46.20
2019-02-20T12:15:42.126Z,46.20
2019-02-20T12:18:17.368Z,46.20
2019-02-20T12:20:45.284Z,46.20
2019-02-20T12:23:15.844Z,46.30
2019-02-20T12:25:46.261Z,46.30
2019-02-20T12:28:16.727Z,46.30
2019-02-20T12:30:47.107Z,46.20
2019-02-20T12:33:17.565Z,46.20
2019-02-20T12:35:48.445Z,46.20
2019-02-20T12:38:18.815Z,46.10
2019-02-20T12:40:50.818Z,46.20
2019-02-20T12:43:21.385Z,46.20
2019-02-20T12:45:51.845Z,46.20
2019-02-20T12:48:22.458Z,46.20
2019-02-20T12:50:52.839Z,46.20
2019-02-20T12:53:23.293Z,46.20
2019-02-20T12:55:53.922Z,46.20
2019-02-20T12:58:24.516Z,46.20
2019-02-20T13:00:55.493Z,46.30
2019-02-20T13:03:26.048Z,46.20
2019-02-20T13:05:56.834Z,46.30
2019-02-20T13:08:27.214Z,46.20
2019-02-20T13:10:57.650Z,46.20
2019-02-20T13:13:28.001Z,46.10
2019-02-20T13:15:58.528Z,46.20
2019-02-20T13:18:29.021Z,46.20
2019-02-20T13:20:59.621Z,46.20
2019-02-20T13:23:30.161Z,46.20
2019-02-20T13:26:00.547Z,46.20
2019-02-20T13:28:31.026Z,46.20
2019-02-20T13:31:01.396Z,46.20
2019-02-20T13:33:31.853Z,46.30
2019-02-20T13:36:02.417Z,46.20
2019-02-20T13:38:33.097Z,46.20
2019-02-20T13:41:03.457Z,46.20
2019-02-20T13:43:34.306Z,46.30
2019-02-20T13:46:04.845Z,46.30
2019-02-20T13:48:35.292Z,46.30
2019-02-20T13:51:06.067Z,46.20
2019-02-20T13:53:36.446Z,46.20
2019-02-20T13:56:07.052Z,46.30
2019-02-20T13:58:37.704Z,46.40
2019-02-20T14:01:08.598Z,46.30
2019-02-20T14:03:39.048Z,46.40
2019-02-20T14:06:09.408Z,46.30
2019-02-20T14:08:40.326Z,46.40
2019-02-20T14:11:11.254Z,46.30
2019-02-20T14:13:41.712Z,46.40
2019-02-20T14:16:12.267Z,46.40
2019-02-20T14:18:42.729Z,46.40
2019-02-20T14:21:13.448Z,46.50
2019-02-20T14:23:44.098Z,46.40
2019-02-20T14:26:14.868Z,46.50
2019-02-20T14:28:45.225Z,46.50
2019-02-20T14:31:15.726Z,46.50
2019-02-20T14:33:46.433Z,46.50
2019-02-20T14:36:16.797Z,46.50
2019-02-20T14:38:47.668Z,46.50
2019-02-20T14:41:18.933Z,46.50
2019-02-20T14:43:49.419Z,46.60
2019-02-20T14:46:20.229Z,46.50
2019-02-20T14:48:50.715Z,46.50
2019-02-20T14:51:21.477Z,46.50
2019-02-20T14:53:54.124Z,46.50
2019-02-20T14:56:24.211Z,46.50
2019-02-20T14:58:54.608Z,46.60
2019-02-20T15:01:25.006Z,46.50
2019-02-20T15:03:55.453Z,46.50
2019-02-20T15:06:25.982Z,46.50
2019-02-20T15:08:56.426Z,46.50
2019-02-20T15:11:26.908Z,47.30
2019-02-20T15:13:57.359Z,46.50
2019-02-20T15:16:27.756Z,46.50
2019-02-20T15:18:58.228Z,46.50
2019-02-20T15:21:29.343Z,46.60
2019-02-20T15:23:59.713Z,46.60
2019-02-20T15:26:30.279Z,46.50
2019-02-20T15:29:02.025Z,46.50
2019-02-20T15:31:33.961Z,46.70
2019-02-20T15:34:04.945Z,46.60
2019-02-20T15:36:35.410Z,46.60
2019-02-20T15:39:06.242Z,46.50
2019-02-20T15:41:36.988Z,47.20
2019-02-20T15:44:07.864Z,46.50
2019-02-20T15:46:38.248Z,46.50
2019-02-20T15:49:09.017Z,46.50
2019-02-20T15:51:39.385Z,46.50
2019-02-20T15:54:10.274Z,46.50
2019-02-20T15:56:41.424Z,46.50
2019-02-20T15:59:12.431Z,46.60
2019-02-20T16:01:43.196Z,46.50
2019-02-20T16:04:13.784Z,46.50
2019-02-20T16:06:44.487Z,46.50
2019-02-20T16:09:14.953Z,46.50
2019-02-20T16:11:45.338Z,46.50
2019-02-20T16:14:15.837Z,46.50
2019-02-20T16:16:46.672Z,46.50
2019-02-20T16:19:17.533Z,46.50
2019-02-20T16:21:48.022Z,46.50
2019-02-20T16:24:18.578Z,46.60
2019-02-20T16:26:49.439Z,46.50
2019-02-20T16:29:20.276Z,46.50
2019-02-20T16:31:50.853Z,46.60
2019-02-20T16:34:21.312Z,46.60
2019-02-20T16:36:51.792Z,46.60
2019-02-20T16:39:22.169Z,46.60
2019-02-20T16:41:52.954Z,46.70
2019-02-20T16:44:23.449Z,46.70
2019-02-20T16:46:54.581Z,46.70
2019-02-20T16:49:25.065Z,46.80
2019-02-20T16:51:55.573Z,46.80
2019-02-20T16:54:26.141Z,46.80
2019-02-20T16:56:56.585Z,46.80
2019-02-20T16:59:27.368Z,46.90
2019-02-20T17:01:57.740Z,46.90
2019-02-20T17:04:28.202Z,46.90
2019-02-20T17:06:58.657Z,46.90
2019-02-20T17:09:30.876Z,47.00
2019-02-20T17:12:03.985Z,47.00
2019-02-20T17:14:36.108Z,47.20
2019-02-20T17:17:06.513Z,47.10
2019-02-20T17:19:37.010Z,47.90
2019-02-20T17:22:07.397Z,48.10
2019-02-20T17:24:37.985Z,48.00
2019-02-20T17:27:08.560Z,48.20
2019-02-20T17:29:40.120Z,48.30
2019-02-20T17:32:10.697Z,48.40
2019-02-20T17:34:41.173Z,48.50
2019-02-20T17:37:11.976Z,48.50
2019-02-20T17:39:42.763Z,49.00
2019-02-20T17:42:13.441Z,48.50
2019-02-20T17:44:43.922Z,48.70
2019-02-20T17:47:15.086Z,48.60
2019-02-20T17:49:45.472Z,48.80
2019-02-20T17:52:15.958Z,48.50
2019-02-20T17:54:46.490Z,48.30
2019-02-20T17:57:16.890Z,48.70
2019-02-20T17:59:50.176Z,49.60
2019-02-20T18:02:20.635Z,49.20
2019-02-20T18:04:50.989Z,48.70
2019-02-20T18:07:21.387Z,48.00
2019-02-20T18:09:53.238Z,48.70
2019-02-20T18:12:23.778Z,48.00
2019-02-20T18:14:54.143Z,47.60
2019-02-20T18:17:24.548Z,47.80
2019-02-20T18:19:55.409Z,47.50
2019-02-20T18:22:25.850Z,47.40
2019-02-20T18:24:56.236Z,47.40
2019-02-20T18:27:26.596Z,47.70
2019-02-20T18:29:57.056Z,47.80
2019-02-20T18:32:27.423Z,47.80
2019-02-20T18:34:58.073Z,48.60
2019-02-20T18:37:28.540Z,48.00
2019-02-20T18:39:58.993Z,47.70
2019-02-20T18:42:29.434Z,47.60
2019-02-20T18:44:59.997Z,47.40
2019-02-20T18:47:30.447Z,47.40
2019-02-20T18:50:00.797Z,47.50
2019-02-20T18:52:31.290Z,47.40
2019-02-20T18:55:05.783Z,46.70
2019-02-20T18:57:33.522Z,46.10
2019-02-20T19:00:04.001Z,45.70
2019-02-20T19:02:34.485Z,46.20
2019-02-20T19:05:04.841Z,46.40
2019-02-20T19:07:35.242Z,46.50
2019-02-20T19:10:17.163Z,46.70
2019-02-20T19:12:50.016Z,46.90
2019-02-20T19:15:23.169Z,47.00
2019-02-20T19:18:10.878Z,47.10
2019-02-20T19:20:52.879Z,47.20
2019-02-20T19:23:48.192Z,47.30
2019-02-20T19:26:24.090Z,47.50
2019-02-20T19:28:57.163Z,47.60
2019-02-20T19:31:36.065Z,47.60
2019-02-20T19:34:12.087Z,47.70
2019-02-20T19:36:54.585Z,47.60
2019-02-20T19:39:36.580Z,47.70
2019-02-20T19:42:35.334Z,47.80
2019-02-20T19:45:27.994Z,47.90
2019-02-20T19:48:11.834Z,48.00
2019-02-20T19:51:08.292Z,48.20
2019-02-20T19:53:47.484Z,48.30
2019-02-20T19:56:20.557Z,48.30
2019-02-20T19:59:08.698Z,48.20
2019-02-20T20:02:07.350Z,48.10
2019-02-20T20:04:58.414Z,47.90
2019-02-20T20:08:05.696Z,48.00
2019-02-20T20:10:38.753Z,48.10
2019-02-20T20:13:27.816Z,48.20
2019-02-20T20:16:35.195Z,48.20
2019-02-20T20:19:29.127Z,48.30
2019-02-20T20:22:23.251Z,48.40
2019-02-20T20:25:16.090Z,48.50
2019-02-20T20:27:55.200Z,48.60
2019-02-20T20:30:42.990Z,48.70
2019-02-20T20:33:24.921Z,48.70
2019-02-20T20:36:19.946Z,48.80
2019-02-20T20:39:12.282Z,48.80
2019-02-20T20:41:57.062Z,48.90
2019-02-20T20:44:39.119Z,48.90
2019-02-20T20:47:25.230Z,48.90
2019-02-20T20:49:58.379Z,48.90
2019-02-20T20:52:34.209Z,49.00
2019-02-20T20:55:19.212Z,49.00
2019-02-20T20:58:19.418Z,49.10
2019-02-20T21:01:10.594Z,49.20
2019-02-20T21:03:43.496Z,49.20
2019-02-20T21:06:31.200Z,49.80
2019-02-20T21:09:05.146Z,49.20
2019-02-20T21:11:55.109Z,49.30
2019-02-20T21:14:36.549Z,49.30
2019-02-20T21:17:31.964Z,49.40
2019-02-20T21:20:04.952Z,49.20
2019-02-20T21:22:40.906Z,49.10
2019-02-20T21:25:28.979Z,49.10
2019-02-20T21:28:22.661Z,49.00
2019-02-20T21:31:16.269Z,49.10
2019-02-20T21:34:05.519Z,49.10
2019-02-20T21:36:59.313Z,49.30
2019-02-20T21:39:44.098Z,49.40
2019-02-20T21:42:35.317Z,49.40
2019-02-20T21:45:14.072Z,49.50
2019-02-20T21:48:01.677Z,49.50
2019-02-20T21:50:40.709Z,49.40
2019-02-20T21:53:40.518Z,49.40
2019-02-20T21:56:25.327Z,49.50
2019-02-20T21:59:07.473Z,49.60
2019-02-20T22:01:52.485Z,49.60
2019-02-20T22:04:28.570Z,49.60
2019-02-20T22:07:13.117Z,49.60
2019-02-20T22:10:19.264Z,49.70
2019-02-20T22:13:23.588Z,49.70
2019-02-20T22:16:02.342Z,49.70
2019-02-20T22:18:52.287Z,49.90
2019-02-20T22:21:56.983Z,49.90
2019-02-20T22:24:52.642Z,50.00
2019-02-20T22:27:31.208Z,50.20
2019-02-20T22:30:16.354Z,50.40
2019-02-20T22:33:01.380Z,50.40
2019-02-20T22:35:50.608Z,50.00
2019-02-20T22:39:00.102Z,49.90
2019-02-20T22:41:33.376Z,49.80
2019-02-20T22:44:28.245Z,49.90
2019-02-20T22:47:19.002Z,49.90
2019-02-20T22:50:03.873Z,50.00
2019-02-20T22:52:36.869Z,50.00
2019-02-20T22:55:16.190Z,50.10
2019-02-20T22:58:12.098Z,50.10
2019-02-20T23:01:01.050Z,50.10
2019-02-20T23:03:49.036Z,50.20
2019-02-20T23:06:56.649Z,50.10
2019-02-20T23:09:47.806Z,50.10
2019-02-20T23:12:23.719Z,50.10
2019-02-20T23:14:58.989Z,50.10
2019-02-20T23:17:30.757Z,50.00
2019-02-20T23:20:01.114Z,50.00
2019-02-20T23:22:31.510Z,50.00
2019-02-20T23:25:02.022Z,49.90
2019-02-20T23:27:32.521Z,50.00
2019-02-20T23:30:12.243Z,50.00
2019-02-20T23:32:35.029Z,50.00
2019-02-20T23:35:05.638Z,50.00
2019-02-20T23:37:36.076Z,50.10
2019-02-20T23:40:09.380Z,50.10
2019-02-20T23:42:39.995Z,50.00
2019-02-20T23:45:11.409Z,49.90
2019-02-20T23:47:41.805Z,49.80
2019-02-20T23:50:12.283Z,49.80
2019-02-20T23:52:43.230Z,49.80
2019-02-20T23:55:14.057Z,49.80
2019-02-20T23:57:44.633Z,49.80
